sensor_id;sensor_type;location;lat;lon;timestamp;temperature;humidity
54788;DHT22;59598;48.112;16.280;2023-08-21T00:01:12;22.00;1.00
54788;DHT22;59598;48.112;16.280;2023-08-21T00:03:48;21.90;1.00
54788;DHT22;59598;48.112;16.280;2023-08-21T00:06:25;22.00;1.00
54788;DHT22;59598;48.112;16.280;2023-08-21T00:09:00;21.90;1.00
54788;DHT22;59598;48.112;16.280;2023-08-21T00:11:32;21.90;1.00
54788;DHT22;59598;48.112;16.280;2023-08-21T00:14:06;21.90;1.00
54788;DHT22;59598;48.112;16.280;2023-08-21T00:16:43;21.90;1.00
54788;DHT22;59598;48.112;16.280;2023-08-21T00:19:18;21.90;1.00
54788;DHT22;59598;48.112;16.280;2023-08-21T00:21:54;21.90;1.00
54788;DHT22;59598;48.112;16.280;2023-08-21T00:24:28;22.00;1.00
54788;DHT22;59598;48.112;16.280;2023-08-21T00:27:02;21.90;1.00
54788;DHT22;59598;48.112;16.280;2023-08-21T00:29:36;22.00;1.00
54788;DHT22;59598;48.112;16.280;2023-08-21T00:32:11;22.00;1.00
54788;DHT22;59598;48.112;16.280;2023-08-21T00:34:45;22.00;1.00
54788;DHT22;59598;48.112;16.280;2023-08-21T00:37:21;22.10;1.00
54788;DHT22;59598;48.112;16.280;2023-08-21T00:39:55;22.20;1.00
54788;DHT22;59598;48.112;16.280;2023-08-21T00:42:33;22.30;1.00
54788;DHT22;59598;48.112;16.280;2023-08-21T00:45:08;22.30;1.00
54788;DHT22;59598;48.112;16.280;2023-08-21T00:47:40;22.30;1.00
54788;DHT22;59598;48.112;16.280;2023-08-21T00:50:13;22.30;1.00
54788;DHT22;59598;48.112;16.280;2023-08-21T00:52:48;22.30;1.00
54788;DHT22;59598;48.112;16.280;2023-08-21T00:55:20;22.10;1.00
54788;DHT22;59598;48.112;16.280;2023-08-21T00:57:54;22.00;1.00
54788;DHT22;59598;48.112;16.280;2023-08-21T01:00:30;22.00;1.00
54788;DHT22;59598;48.112;16.280;2023-08-21T01:03:02;21.90;1.00
54788;DHT22;59598;48.112;16.280;2023-08-21T01:05:35;21.80;1.00
54788;DHT22;59598;48.112;16.280;2023-08-21T01:08:15;21.80;1.00
54788;DHT22;59598;48.112;16.280;2023-08-21T01:11:40;21.80;1.00
54788;DHT22;59598;48.112;16.280;2023-08-21T01:14:28;21.60;1.00
54788;DHT22;59598;48.112;16.280;2023-08-21T01:17:09;21.50;1.00
54788;DHT22;59598;48.112;16.280;2023-08-21T01:19:47;21.50;1.00
54788;DHT22;59598;48.112;16.280;2023-08-21T01:22:19;21.40;1.00
54788;DHT22;59598;48.112;16.280;2023-08-21T01:24:56;21.40;1.00
54788;DHT22;59598;48.112;16.280;2023-08-21T01:27:32;21.20;1.00
54788;DHT22;59598;48.112;16.280;2023-08-21T01:30:07;21.20;1.00
54788;DHT22;59598;48.112;16.280;2023-08-21T01:32:46;21.10;1.00
54788;DHT22;59598;48.112;16.280;2023-08-21T01:35:26;21.10;1.00
54788;DHT22;59598;48.112;16.280;2023-08-21T01:38:04;21.10;1.00
54788;DHT22;59598;48.112;16.280;2023-08-21T01:40:37;21.00;1.00
54788;DHT22;59598;48.112;16.280;2023-08-21T01:43:10;21.10;1.00
54788;DHT22;59598;48.112;16.280;2023-08-21T01:45:46;21.00;1.00
54788;DHT22;59598;48.112;16.280;2023-08-21T01:48:23;21.00;1.00
54788;DHT22;59598;48.112;16.280;2023-08-21T01:50:54;21.10;18.70
54788;DHT22;59598;48.112;16.280;2023-08-21T01:53:28;21.10;16.90
54788;DHT22;59598;48.112;16.280;2023-08-21T01:56:06;21.00;15.60
54788;DHT22;59598;48.112;16.280;2023-08-21T01:58:40;21.00;38.50
54788;DHT22;59598;48.112;16.280;2023-08-21T02:01:15;21.00;43.90
54788;DHT22;59598;48.112;16.280;2023-08-21T02:03:47;20.90;43.50
54788;DHT22;59598;48.112;16.280;2023-08-21T02:06:23;20.80;39.70
54788;DHT22;59598;48.112;16.280;2023-08-21T02:08:55;20.80;98.70
54788;DHT22;59598;48.112;16.280;2023-08-21T02:11:27;20.80;99.90
54788;DHT22;59598;48.112;16.280;2023-08-21T02:13:59;20.80;81.40
54788;DHT22;59598;48.112;16.280;2023-08-21T02:16:32;20.80;99.90
54788;DHT22;59598;48.112;16.280;2023-08-21T02:19:09;20.60;99.90
54788;DHT22;59598;48.112;16.280;2023-08-21T02:21:42;20.60;99.90
54788;DHT22;59598;48.112;16.280;2023-08-21T02:24:17;20.50;99.90
54788;DHT22;59598;48.112;16.280;2023-08-21T02:26:48;20.50;99.90
54788;DHT22;59598;48.112;16.280;2023-08-21T02:29:25;20.60;99.90
54788;DHT22;59598;48.112;16.280;2023-08-21T02:32:02;20.60;99.90
54788;DHT22;59598;48.112;16.280;2023-08-21T02:34:40;20.60;99.90
54788;DHT22;59598;48.112;16.280;2023-08-21T02:37:20;20.50;99.90
54788;DHT22;59598;48.112;16.280;2023-08-21T02:39:54;20.50;99.90
54788;DHT22;59598;48.112;16.280;2023-08-21T02:42:29;20.40;99.90
54788;DHT22;59598;48.112;16.280;2023-08-21T02:45:03;20.40;99.90
54788;DHT22;59598;48.112;16.280;2023-08-21T02:47:39;20.40;99.90
54788;DHT22;59598;48.112;16.280;2023-08-21T02:50:12;20.30;99.90
54788;DHT22;59598;48.112;16.280;2023-08-21T02:53:05;20.30;99.90
54788;DHT22;59598;48.112;16.280;2023-08-21T02:55:37;20.40;99.90
54788;DHT22;59598;48.112;16.280;2023-08-21T02:58:08;20.40;99.90
54788;DHT22;59598;48.112;16.280;2023-08-21T03:00:42;20.40;99.90
54788;DHT22;59598;48.112;16.280;2023-08-21T03:03:17;20.40;99.90
54788;DHT22;59598;48.112;16.280;2023-08-21T03:05:48;20.30;99.90
54788;DHT22;59598;48.112;16.280;2023-08-21T03:08:21;20.30;99.90
54788;DHT22;59598;48.112;16.280;2023-08-21T03:11:01;20.30;99.90
54788;DHT22;59598;48.112;16.280;2023-08-21T03:13:35;20.30;99.90
54788;DHT22;59598;48.112;16.280;2023-08-21T03:16:07;20.30;99.90
54788;DHT22;59598;48.112;16.280;2023-08-21T03:18:58;20.30;99.90
54788;DHT22;59598;48.112;16.280;2023-08-21T03:21:31;20.40;99.90
54788;DHT22;59598;48.112;16.280;2023-08-21T03:24:06;20.50;99.90
54788;DHT22;59598;48.112;16.280;2023-08-21T03:26:43;20.50;99.90
54788;DHT22;59598;48.112;16.280;2023-08-21T03:29:14;20.50;99.90
54788;DHT22;59598;48.112;16.280;2023-08-21T03:31:52;20.50;99.90
54788;DHT22;59598;48.112;16.280;2023-08-21T03:34:25;20.40;97.80
54788;DHT22;59598;48.112;16.280;2023-08-21T03:36:59;20.50;99.90
54788;DHT22;59598;48.112;16.280;2023-08-21T03:39:30;20.40;99.90
54788;DHT22;59598;48.112;16.280;2023-08-21T03:42:05;20.40;99.90
54788;DHT22;59598;48.112;16.280;2023-08-21T03:44:39;20.30;99.90
54788;DHT22;59598;48.112;16.280;2023-08-21T03:47:16;20.30;99.90
54788;DHT22;59598;48.112;16.280;2023-08-21T03:49:51;20.20;99.90
54788;DHT22;59598;48.112;16.280;2023-08-21T03:52:22;20.20;99.90
54788;DHT22;59598;48.112;16.280;2023-08-21T03:54:54;20.20;99.90
54788;DHT22;59598;48.112;16.280;2023-08-21T03:57:33;20.20;99.90
54788;DHT22;59598;48.112;16.280;2023-08-21T04:00:08;20.30;99.90
54788;DHT22;59598;48.112;16.280;2023-08-21T04:02:40;20.30;99.90
54788;DHT22;59598;48.112;16.280;2023-08-21T04:05:12;20.30;99.90
54788;DHT22;59598;48.112;16.280;2023-08-21T04:07:44;20.30;99.90
54788;DHT22;59598;48.112;16.280;2023-08-21T04:10:16;20.30;99.90
54788;DHT22;59598;48.112;16.280;2023-08-21T04:12:48;20.30;99.90
54788;DHT22;59598;48.112;16.280;2023-08-21T04:15:19;20.30;99.90
54788;DHT22;59598;48.112;16.280;2023-08-21T04:17:58;20.30;99.90
54788;DHT22;59598;48.112;16.280;2023-08-21T04:20:38;20.40;99.90
54788;DHT22;59598;48.112;16.280;2023-08-21T04:23:09;20.50;99.90
54788;DHT22;59598;48.112;16.280;2023-08-21T04:25:43;20.60;99.90
54788;DHT22;59598;48.112;16.280;2023-08-21T04:28:17;20.70;57.20
54788;DHT22;59598;48.112;16.280;2023-08-21T04:30:49;20.70;38.00
54788;DHT22;59598;48.112;16.280;2023-08-21T04:33:21;20.90;10.90
54788;DHT22;59598;48.112;16.280;2023-08-21T04:35:59;21.00;1.00
54788;DHT22;59598;48.112;16.280;2023-08-21T04:38:37;21.00;1.00
54788;DHT22;59598;48.112;16.280;2023-08-21T04:41:09;21.00;1.00
54788;DHT22;59598;48.112;16.280;2023-08-21T04:43:46;21.00;1.00
54788;DHT22;59598;48.112;16.280;2023-08-21T04:46:20;21.10;1.00
54788;DHT22;59598;48.112;16.280;2023-08-21T04:48:54;21.10;1.00
54788;DHT22;59598;48.112;16.280;2023-08-21T04:51:29;21.10;1.00
54788;DHT22;59598;48.112;16.280;2023-08-21T04:54:06;21.10;1.00
54788;DHT22;59598;48.112;16.280;2023-08-21T04:56:43;21.10;1.00
54788;DHT22;59598;48.112;16.280;2023-08-21T04:59:14;21.00;1.00
54788;DHT22;59598;48.112;16.280;2023-08-21T05:01:48;21.10;1.00
54788;DHT22;59598;48.112;16.280;2023-08-21T05:04:20;21.10;1.00
54788;DHT22;59598;48.112;16.280;2023-08-21T05:06:55;21.20;1.00
54788;DHT22;59598;48.112;16.280;2023-08-21T05:09:32;21.30;2.30
54788;DHT22;59598;48.112;16.280;2023-08-21T05:12:04;21.30;1.00
54788;DHT22;59598;48.112;16.280;2023-08-21T05:14:38;21.30;1.00
54788;DHT22;59598;48.112;16.280;2023-08-21T05:17:13;21.40;1.00
54788;DHT22;59598;48.112;16.280;2023-08-21T05:19:47;21.50;1.00
54788;DHT22;59598;48.112;16.280;2023-08-21T05:22:20;21.60;1.00
54788;DHT22;59598;48.112;16.280;2023-08-21T05:25:07;21.70;1.00
54788;DHT22;59598;48.112;16.280;2023-08-21T05:27:43;21.80;1.00
54788;DHT22;59598;48.112;16.280;2023-08-21T05:30:15;21.80;1.00
54788;DHT22;59598;48.112;16.280;2023-08-21T05:32:47;21.90;1.00
54788;DHT22;59598;48.112;16.280;2023-08-21T05:35:24;22.10;1.00
54788;DHT22;59598;48.112;16.280;2023-08-21T05:37:56;22.10;1.00
54788;DHT22;59598;48.112;16.280;2023-08-21T05:40:27;22.20;1.00
54788;DHT22;59598;48.112;16.280;2023-08-21T05:43:03;22.20;1.00
54788;DHT22;59598;48.112;16.280;2023-08-21T05:45:37;22.60;1.00
54788;DHT22;59598;48.112;16.280;2023-08-21T05:48:12;23.10;1.00
54788;DHT22;59598;48.112;16.280;2023-08-21T05:50:44;23.60;99.90
54788;DHT22;59598;48.112;16.280;2023-08-21T05:53:16;24.10;99.90
54788;DHT22;59598;48.112;16.280;2023-08-21T05:55:52;24.40;1.00
54788;DHT22;59598;48.112;16.280;2023-08-21T05:58:28;24.20;1.00
54788;DHT22;59598;48.112;16.280;2023-08-21T06:01:02;24.10;1.00
54788;DHT22;59598;48.112;16.280;2023-08-21T06:03:37;24.00;1.00
54788;DHT22;59598;48.112;16.280;2023-08-21T06:06:10;23.80;1.00
54788;DHT22;59598;48.112;16.280;2023-08-21T06:08:46;23.40;1.00
54788;DHT22;59598;48.112;16.280;2023-08-21T06:11:31;23.20;99.90
54788;DHT22;59598;48.112;16.280;2023-08-21T06:14:09;23.10;1.00
54788;DHT22;59598;48.112;16.280;2023-08-21T06:16:44;23.10;99.90
54788;DHT22;59598;48.112;16.280;2023-08-21T06:19:16;23.00;99.90
54788;DHT22;59598;48.112;16.280;2023-08-21T06:21:48;22.90;1.00
54788;DHT22;59598;48.112;16.280;2023-08-21T06:24:19;22.90;1.00
54788;DHT22;59598;48.112;16.280;2023-08-21T06:26:52;23.00;1.00
54788;DHT22;59598;48.112;16.280;2023-08-21T06:29:26;23.10;1.00
54788;DHT22;59598;48.112;16.280;2023-08-21T06:31:57;23.10;99.90
54788;DHT22;59598;48.112;16.280;2023-08-21T06:34:29;23.20;99.90
54788;DHT22;59598;48.112;16.280;2023-08-21T06:37:01;23.30;99.90
54788;DHT22;59598;48.112;16.280;2023-08-21T06:39:34;23.30;99.90
54788;DHT22;59598;48.112;16.280;2023-08-21T06:42:07;23.40;99.90
54788;DHT22;59598;48.112;16.280;2023-08-21T06:44:40;23.50;99.90
54788;DHT22;59598;48.112;16.280;2023-08-21T06:47:13;23.60;99.90
54788;DHT22;59598;48.112;16.280;2023-08-21T06:49:45;23.70;99.90
54788;DHT22;59598;48.112;16.280;2023-08-21T06:52:22;23.80;94.10
54788;DHT22;59598;48.112;16.280;2023-08-21T06:54:53;23.90;99.90
54788;DHT22;59598;48.112;16.280;2023-08-21T06:57:32;23.90;99.90
54788;DHT22;59598;48.112;16.280;2023-08-21T07:00:08;24.20;46.90
54788;DHT22;59598;48.112;16.280;2023-08-21T07:02:40;24.60;1.00
54788;DHT22;59598;48.112;16.280;2023-08-21T07:05:18;24.90;1.00
54788;DHT22;59598;48.112;16.280;2023-08-21T07:07:52;25.30;1.00
54788;DHT22;59598;48.112;16.280;2023-08-21T07:10:26;25.80;1.00
54788;DHT22;59598;48.112;16.280;2023-08-21T07:13:00;26.20;14.50
54788;DHT22;59598;48.112;16.280;2023-08-21T07:15:36;26.30;1.00
54788;DHT22;59598;48.112;16.280;2023-08-21T07:18:13;26.40;1.00
54788;DHT22;59598;48.112;16.280;2023-08-21T07:20:52;26.70;1.00
54788;DHT22;59598;48.112;16.280;2023-08-21T07:23:27;27.20;1.00
54788;DHT22;59598;48.112;16.280;2023-08-21T07:26:07;27.80;1.00
54788;DHT22;59598;48.112;16.280;2023-08-21T07:28:39;28.30;1.00
54788;DHT22;59598;48.112;16.280;2023-08-21T07:31:10;28.70;99.90
54788;DHT22;59598;48.112;16.280;2023-08-21T07:33:44;29.00;1.00
54788;DHT22;59598;48.112;16.280;2023-08-21T07:36:19;29.20;1.00
54788;DHT22;59598;48.112;16.280;2023-08-21T07:38:50;29.40;1.00
54788;DHT22;59598;48.112;16.280;2023-08-21T07:41:25;29.60;1.00
54788;DHT22;59598;48.112;16.280;2023-08-21T07:43:56;29.80;1.00
54788;DHT22;59598;48.112;16.280;2023-08-21T07:46:31;30.20;1.00
54788;DHT22;59598;48.112;16.280;2023-08-21T07:49:02;30.60;1.00
54788;DHT22;59598;48.112;16.280;2023-08-21T07:51:44;31.00;1.00
54788;DHT22;59598;48.112;16.280;2023-08-21T07:54:18;31.10;1.00
54788;DHT22;59598;48.112;16.280;2023-08-21T07:56:52;31.00;99.90
54788;DHT22;59598;48.112;16.280;2023-08-21T07:59:24;31.10;99.90
54788;DHT22;59598;48.112;16.280;2023-08-21T08:01:57;31.30;99.90
54788;DHT22;59598;48.112;16.280;2023-08-21T08:04:28;31.60;99.90
54788;DHT22;59598;48.112;16.280;2023-08-21T08:07:02;31.90;99.90
54788;DHT22;59598;48.112;16.280;2023-08-21T08:09:34;31.80;99.90
54788;DHT22;59598;48.112;16.280;2023-08-21T08:12:08;31.90;99.90
54788;DHT22;59598;48.112;16.280;2023-08-21T08:14:44;32.20;1.00
54788;DHT22;59598;48.112;16.280;2023-08-21T08:17:18;32.50;1.00
54788;DHT22;59598;48.112;16.280;2023-08-21T08:19:52;32.60;1.00
54788;DHT22;59598;48.112;16.280;2023-08-21T08:22:24;32.70;1.00
54788;DHT22;59598;48.112;16.280;2023-08-21T08:25:00;32.90;1.00
54788;DHT22;59598;48.112;16.280;2023-08-21T08:27:34;33.20;1.00
54788;DHT22;59598;48.112;16.280;2023-08-21T08:30:09;33.60;1.00
54788;DHT22;59598;48.112;16.280;2023-08-21T08:32:44;33.90;1.00
54788;DHT22;59598;48.112;16.280;2023-08-21T08:35:18;34.10;1.00
54788;DHT22;59598;48.112;16.280;2023-08-21T08:37:56;34.50;1.00
54788;DHT22;59598;48.112;16.280;2023-08-21T08:40:33;34.70;1.00
54788;DHT22;59598;48.112;16.280;2023-08-21T08:43:14;34.60;1.00
54788;DHT22;59598;48.112;16.280;2023-08-21T08:45:47;34.70;1.00
54788;DHT22;59598;48.112;16.280;2023-08-21T08:48:23;34.60;1.00
54788;DHT22;59598;48.112;16.280;2023-08-21T08:50:58;34.40;1.00
54788;DHT22;59598;48.112;16.280;2023-08-21T08:53:33;34.20;1.00
54788;DHT22;59598;48.112;16.280;2023-08-21T08:56:07;34.10;1.00
54788;DHT22;59598;48.112;16.280;2023-08-21T08:58:44;34.50;1.00
54788;DHT22;59598;48.112;16.280;2023-08-21T09:01:16;35.00;1.00
54788;DHT22;59598;48.112;16.280;2023-08-21T09:03:50;35.30;1.00
54788;DHT22;59598;48.112;16.280;2023-08-21T09:06:24;35.00;1.00
54788;DHT22;59598;48.112;16.280;2023-08-21T09:08:58;34.90;1.00
54788;DHT22;59598;48.112;16.280;2023-08-21T09:11:29;35.10;1.00
54788;DHT22;59598;48.112;16.280;2023-08-21T09:14:05;35.30;1.00
54788;DHT22;59598;48.112;16.280;2023-08-21T09:16:36;35.60;1.00
54788;DHT22;59598;48.112;16.280;2023-08-21T09:19:09;35.70;1.00
54788;DHT22;59598;48.112;16.280;2023-08-21T09:21:41;35.10;1.00
54788;DHT22;59598;48.112;16.280;2023-08-21T09:24:18;35.30;1.00
54788;DHT22;59598;48.112;16.280;2023-08-21T09:26:52;35.30;1.00
54788;DHT22;59598;48.112;16.280;2023-08-21T09:29:38;35.40;1.00
54788;DHT22;59598;48.112;16.280;2023-08-21T09:32:13;35.40;1.00
54788;DHT22;59598;48.112;16.280;2023-08-21T09:34:52;35.50;1.00
54788;DHT22;59598;48.112;16.280;2023-08-21T09:37:30;35.90;1.00
54788;DHT22;59598;48.112;16.280;2023-08-21T09:40:09;36.00;1.00
54788;DHT22;59598;48.112;16.280;2023-08-21T09:42:42;35.90;1.00
54788;DHT22;59598;48.112;16.280;2023-08-21T09:45:13;35.70;1.00
54788;DHT22;59598;48.112;16.280;2023-08-21T09:47:49;35.00;1.00
54788;DHT22;59598;48.112;16.280;2023-08-21T09:50:22;35.50;1.00
54788;DHT22;59598;48.112;16.280;2023-08-21T09:52:54;36.20;1.00
54788;DHT22;59598;48.112;16.280;2023-08-21T09:55:29;36.50;1.00
54788;DHT22;59598;48.112;16.280;2023-08-21T09:58:06;36.70;1.00
54788;DHT22;59598;48.112;16.280;2023-08-21T10:00:41;37.30;1.00
54788;DHT22;59598;48.112;16.280;2023-08-21T10:03:26;37.30;1.00
54788;DHT22;59598;48.112;16.280;2023-08-21T10:06:04;36.50;1.00
54788;DHT22;59598;48.112;16.280;2023-08-21T10:08:41;37.00;1.00
54788;DHT22;59598;48.112;16.280;2023-08-21T10:11:20;37.80;1.00
54788;DHT22;59598;48.112;16.280;2023-08-21T10:13:54;38.20;1.00
54788;DHT22;59598;48.112;16.280;2023-08-21T10:16:27;38.60;1.00
54788;DHT22;59598;48.112;16.280;2023-08-21T10:19:07;38.60;1.00
54788;DHT22;59598;48.112;16.280;2023-08-21T10:21:46;39.40;1.00
54788;DHT22;59598;48.112;16.280;2023-08-21T10:24:33;40.20;1.00
54788;DHT22;59598;48.112;16.280;2023-08-21T10:27:12;40.20;1.00
54788;DHT22;59598;48.112;16.280;2023-08-21T10:29:57;40.90;1.00
54788;DHT22;59598;48.112;16.280;2023-08-21T10:32:44;41.20;99.90
54788;DHT22;59598;48.112;16.280;2023-08-21T10:35:32;40.70;99.90
54788;DHT22;59598;48.112;16.280;2023-08-21T10:38:08;40.90;99.90
54788;DHT22;59598;48.112;16.280;2023-08-21T10:41:05;41.60;99.90
54788;DHT22;59598;48.112;16.280;2023-08-21T10:43:45;40.60;99.90
54788;DHT22;59598;48.112;16.280;2023-08-21T10:46:21;40.60;99.90
54788;DHT22;59598;48.112;16.280;2023-08-21T10:48:53;41.20;99.90
54788;DHT22;59598;48.112;16.280;2023-08-21T10:51:29;42.10;99.90
54788;DHT22;59598;48.112;16.280;2023-08-21T10:54:11;42.10;99.90
54788;DHT22;59598;48.112;16.280;2023-08-21T10:56:45;42.70;99.90
54788;DHT22;59598;48.112;16.280;2023-08-21T10:59:24;44.00;99.90
54788;DHT22;59598;48.112;16.280;2023-08-21T11:01:58;44.50;99.90
54788;DHT22;59598;48.112;16.280;2023-08-21T11:04:39;44.40;99.90
54788;DHT22;59598;48.112;16.280;2023-08-21T11:07:12;44.80;99.90
54788;DHT22;59598;48.112;16.280;2023-08-21T11:09:52;45.40;99.90
54788;DHT22;59598;48.112;16.280;2023-08-21T11:12:28;45.40;99.90
54788;DHT22;59598;48.112;16.280;2023-08-21T11:15:01;45.60;99.90
54788;DHT22;59598;48.112;16.280;2023-08-21T11:17:34;46.10;99.90
54788;DHT22;59598;48.112;16.280;2023-08-21T11:20:07;46.20;99.90
54788;DHT22;59598;48.112;16.280;2023-08-21T11:22:39;46.50;99.90
54788;DHT22;59598;48.112;16.280;2023-08-21T11:25:11;46.30;54.00
54788;DHT22;59598;48.112;16.280;2023-08-21T11:27:47;46.30;49.30
54788;DHT22;59598;48.112;16.280;2023-08-21T11:30:24;46.40;42.50
54788;DHT22;59598;48.112;16.280;2023-08-21T11:33:09;44.70;28.40
54788;DHT22;59598;48.112;16.280;2023-08-21T11:35:41;45.50;58.50
54788;DHT22;59598;48.112;16.280;2023-08-21T11:38:18;45.80;99.90
54788;DHT22;59598;48.112;16.280;2023-08-21T11:41:00;45.80;74.70
54788;DHT22;59598;48.112;16.280;2023-08-21T11:43:40;46.10;99.90
54788;DHT22;59598;48.112;16.280;2023-08-21T11:46:21;47.30;99.90
54788;DHT22;59598;48.112;16.280;2023-08-21T11:48:55;48.20;91.90
54788;DHT22;59598;48.112;16.280;2023-08-21T11:51:26;48.40;62.10
54788;DHT22;59598;48.112;16.280;2023-08-21T11:54:04;47.80;47.50
54788;DHT22;59598;48.112;16.280;2023-08-21T11:56:39;47.10;21.90
54788;DHT22;59598;48.112;16.280;2023-08-21T11:59:21;46.90;14.50
54788;DHT22;59598;48.112;16.280;2023-08-21T12:01:57;46.80;99.90
54788;DHT22;59598;48.112;16.280;2023-08-21T12:04:28;46.90;99.90
54788;DHT22;59598;48.112;16.280;2023-08-21T12:07:02;46.50;86.30
54788;DHT22;59598;48.112;16.280;2023-08-21T12:09:45;46.40;90.60
54788;DHT22;59598;48.112;16.280;2023-08-21T12:12:25;47.30;98.30
54788;DHT22;59598;48.112;16.280;2023-08-21T12:14:57;48.20;99.90
54788;DHT22;59598;48.112;16.280;2023-08-21T12:17:32;48.20;99.90
54788;DHT22;59598;48.112;16.280;2023-08-21T12:20:04;47.50;29.90
54788;DHT22;59598;48.112;16.280;2023-08-21T12:22:42;47.20;20.60
54788;DHT22;59598;48.112;16.280;2023-08-21T12:25:16;46.50;23.90
54788;DHT22;59598;48.112;16.280;2023-08-21T12:27:50;46.90;99.90
54788;DHT22;59598;48.112;16.280;2023-08-21T12:30:27;48.00;99.90
54788;DHT22;59598;48.112;16.280;2023-08-21T12:32:59;48.80;99.90
54788;DHT22;59598;48.112;16.280;2023-08-21T12:35:33;47.70;67.20
54788;DHT22;59598;48.112;16.280;2023-08-21T12:38:10;45.30;19.90
54788;DHT22;59598;48.112;16.280;2023-08-21T12:40:43;44.90;1.00
54788;DHT22;59598;48.112;16.280;2023-08-21T12:43:15;45.70;1.00
54788;DHT22;59598;48.112;16.280;2023-08-21T12:45:46;46.20;1.80
54788;DHT22;59598;48.112;16.280;2023-08-21T12:48:21;46.70;24.30
54788;DHT22;59598;48.112;16.280;2023-08-21T12:50:56;47.00;53.00
54788;DHT22;59598;48.112;16.280;2023-08-21T12:53:29;46.80;16.70
54788;DHT22;59598;48.112;16.280;2023-08-21T12:56:03;46.90;1.00
54788;DHT22;59598;48.112;16.280;2023-08-21T12:58:35;48.00;1.00
54788;DHT22;59598;48.112;16.280;2023-08-21T13:01:06;48.40;1.00
54788;DHT22;59598;48.112;16.280;2023-08-21T13:03:44;47.50;1.00
54788;DHT22;59598;48.112;16.280;2023-08-21T13:06:18;47.60;1.00
54788;DHT22;59598;48.112;16.280;2023-08-21T13:08:52;46.30;1.00
54788;DHT22;59598;48.112;16.280;2023-08-21T13:11:25;46.10;1.00
54788;DHT22;59598;48.112;16.280;2023-08-21T13:14:00;47.40;1.00
54788;DHT22;59598;48.112;16.280;2023-08-21T13:16:35;48.20;1.00
54788;DHT22;59598;48.112;16.280;2023-08-21T13:19:06;49.00;1.00
54788;DHT22;59598;48.112;16.280;2023-08-21T13:21:38;48.70;1.00
54788;DHT22;59598;48.112;16.280;2023-08-21T13:24:12;48.40;1.00
54788;DHT22;59598;48.112;16.280;2023-08-21T13:26:48;48.40;1.00
54788;DHT22;59598;48.112;16.280;2023-08-21T13:29:19;46.70;1.00
54788;DHT22;59598;48.112;16.280;2023-08-21T13:31:51;46.70;1.00
54788;DHT22;59598;48.112;16.280;2023-08-21T13:34:23;46.80;1.00
54788;DHT22;59598;48.112;16.280;2023-08-21T13:36:55;48.10;1.00
54788;DHT22;59598;48.112;16.280;2023-08-21T13:39:27;47.30;1.00
54788;DHT22;59598;48.112;16.280;2023-08-21T13:41:59;47.20;1.00
54788;DHT22;59598;48.112;16.280;2023-08-21T13:44:33;46.80;1.00
54788;DHT22;59598;48.112;16.280;2023-08-21T13:47:06;46.10;1.00
54788;DHT22;59598;48.112;16.280;2023-08-21T13:49:38;45.70;1.00
54788;DHT22;59598;48.112;16.280;2023-08-21T13:52:14;45.70;1.00
54788;DHT22;59598;48.112;16.280;2023-08-21T13:54:49;46.80;1.00
54788;DHT22;59598;48.112;16.280;2023-08-21T13:57:20;47.60;1.00
54788;DHT22;59598;48.112;16.280;2023-08-21T13:59:52;47.20;1.00
54788;DHT22;59598;48.112;16.280;2023-08-21T14:02:24;47.70;1.00
54788;DHT22;59598;48.112;16.280;2023-08-21T14:04:59;47.90;1.00
54788;DHT22;59598;48.112;16.280;2023-08-21T14:07:34;47.50;1.00
54788;DHT22;59598;48.112;16.280;2023-08-21T14:10:09;46.90;1.00
54788;DHT22;59598;48.112;16.280;2023-08-21T14:12:42;45.40;1.00
54788;DHT22;59598;48.112;16.280;2023-08-21T14:15:13;45.30;1.00
54788;DHT22;59598;48.112;16.280;2023-08-21T14:17:49;45.80;1.00
54788;DHT22;59598;48.112;16.280;2023-08-21T14:20:21;46.30;1.00
54788;DHT22;59598;48.112;16.280;2023-08-21T14:22:55;46.50;1.00
54788;DHT22;59598;48.112;16.280;2023-08-21T14:25:30;46.50;1.00
54788;DHT22;59598;48.112;16.280;2023-08-21T14:28:08;46.30;1.00
54788;DHT22;59598;48.112;16.280;2023-08-21T14:30:42;47.20;1.00
54788;DHT22;59598;48.112;16.280;2023-08-21T14:33:14;47.50;1.00
54788;DHT22;59598;48.112;16.280;2023-08-21T14:35:45;48.20;1.00
54788;DHT22;59598;48.112;16.280;2023-08-21T14:38:17;47.40;1.00
54788;DHT22;59598;48.112;16.280;2023-08-21T14:40:48;46.10;1.00
54788;DHT22;59598;48.112;16.280;2023-08-21T14:43:27;45.00;1.00
54788;DHT22;59598;48.112;16.280;2023-08-21T14:46:03;45.10;1.00
54788;DHT22;59598;48.112;16.280;2023-08-21T14:48:35;44.70;1.00
54788;DHT22;59598;48.112;16.280;2023-08-21T14:51:07;44.70;1.00
54788;DHT22;59598;48.112;16.280;2023-08-21T14:53:43;44.70;1.00
54788;DHT22;59598;48.112;16.280;2023-08-21T14:56:17;44.30;1.00
54788;DHT22;59598;48.112;16.280;2023-08-21T14:58:50;44.40;1.00
54788;DHT22;59598;48.112;16.280;2023-08-21T15:01:28;45.00;1.00
54788;DHT22;59598;48.112;16.280;2023-08-21T15:04:00;45.60;1.00
54788;DHT22;59598;48.112;16.280;2023-08-21T15:06:37;45.40;1.00
54788;DHT22;59598;48.112;16.280;2023-08-21T15:09:11;45.10;1.00
54788;DHT22;59598;48.112;16.280;2023-08-21T15:11:45;44.60;1.00
54788;DHT22;59598;48.112;16.280;2023-08-21T15:14:20;44.70;1.00
54788;DHT22;59598;48.112;16.280;2023-08-21T15:16:52;44.50;1.00
54788;DHT22;59598;48.112;16.280;2023-08-21T15:19:26;43.00;1.00
54788;DHT22;59598;48.112;16.280;2023-08-21T15:22:02;43.40;1.00
54788;DHT22;59598;48.112;16.280;2023-08-21T15:24:38;43.90;1.00
54788;DHT22;59598;48.112;16.280;2023-08-21T15:27:09;44.70;1.00
54788;DHT22;59598;48.112;16.280;2023-08-21T15:29:41;44.70;1.00
54788;DHT22;59598;48.112;16.280;2023-08-21T15:32:14;44.60;1.00
54788;DHT22;59598;48.112;16.280;2023-08-21T15:34:48;44.10;1.00
54788;DHT22;59598;48.112;16.280;2023-08-21T15:37:22;43.40;1.00
54788;DHT22;59598;48.112;16.280;2023-08-21T15:39:56;42.80;1.00
54788;DHT22;59598;48.112;16.280;2023-08-21T15:42:29;42.60;1.00
54788;DHT22;59598;48.112;16.280;2023-08-21T15:45:05;42.30;1.00
54788;DHT22;59598;48.112;16.280;2023-08-21T15:47:37;40.50;1.00
54788;DHT22;59598;48.112;16.280;2023-08-21T15:50:11;40.50;1.00
54788;DHT22;59598;48.112;16.280;2023-08-21T15:52:54;40.50;1.00
54788;DHT22;59598;48.112;16.280;2023-08-21T15:55:26;40.30;1.00
54788;DHT22;59598;48.112;16.280;2023-08-21T15:57:58;39.50;1.00
54788;DHT22;59598;48.112;16.280;2023-08-21T16:00:31;39.50;1.00
54788;DHT22;59598;48.112;16.280;2023-08-21T16:03:07;39.70;1.00
54788;DHT22;59598;48.112;16.280;2023-08-21T16:05:42;39.00;1.00
54788;DHT22;59598;48.112;16.280;2023-08-21T16:08:18;38.90;1.00
54788;DHT22;59598;48.112;16.280;2023-08-21T16:10:50;39.20;1.00
54788;DHT22;59598;48.112;16.280;2023-08-21T16:13:21;39.00;1.00